createdAt,value
2022-08-26T00:02:01.712Z,18.07
2022-08-26T00:04:32.055Z,18.05
2022-08-26T00:07:00.820Z,18.00
2022-08-26T00:09:29.617Z,17.99
2022-08-26T00:11:58.421Z,18.06
2022-08-26T00:14:30.991Z,18.13
2022-08-26T00:17:00.590Z,18.16
2022-08-26T00:19:29.691Z,18.23
2022-08-26T00:21:58.328Z,18.21
2022-08-26T00:24:27.031Z,18.29
2022-08-26T00:26:55.776Z,18.33
2022-08-26T00:29:24.546Z,18.35
2022-08-26T00:31:54.851Z,18.44
2022-08-26T00:34:23.655Z,18.44
2022-08-26T00:36:52.435Z,18.36
2022-08-26T00:39:21.751Z,18.38
2022-08-26T00:41:50.691Z,18.38
2022-08-26T00:44:19.729Z,18.40
2022-08-26T00:46:56.516Z,18.40
2022-08-26T00:49:40.192Z,18.49
2022-08-26T00:52:16.519Z,18.47
2022-08-26T00:54:54.473Z,18.43
2022-08-26T00:57:25.540Z,18.43
2022-08-26T01:00:00.498Z,18.42
2022-08-26T01:02:31.020Z,18.28
2022-08-26T01:05:06.656Z,18.35
2022-08-26T01:07:37.075Z,18.30
2022-08-26T01:10:12.461Z,18.28
2022-08-26T01:12:47.673Z,18.26
2022-08-26T01:15:24.196Z,18.29
2022-08-26T01:17:54.383Z,18.26
2022-08-26T01:20:47.366Z,18.21
2022-08-26T01:23:17.673Z,18.23
2022-08-26T01:25:57.836Z,18.21
2022-08-26T01:28:32.571Z,18.19
2022-08-26T01:31:25.962Z,18.20
2022-08-26T01:34:02.971Z,18.20
2022-08-26T01:36:32.697Z,18.21
2022-08-26T01:39:02.848Z,18.25
2022-08-26T01:41:36.586Z,18.24
2022-08-26T01:44:10.122Z,18.24
2022-08-26T01:46:39.104Z,18.24
2022-08-26T01:49:09.968Z,18.21
2022-08-26T01:51:44.525Z,18.18
2022-08-26T01:54:15.170Z,18.20
2022-08-26T01:56:44.462Z,18.24
2022-08-26T01:59:18.914Z,18.28
2022-08-26T02:01:48.516Z,18.15
2022-08-26T02:04:26.851Z,18.11
2022-08-26T02:06:57.715Z,18.11
2022-08-26T02:09:29.270Z,18.14
2022-08-26T02:12:02.559Z,18.18
2022-08-26T02:14:43.570Z,18.18
2022-08-26T02:17:13.642Z,18.13
2022-08-26T02:19:48.646Z,18.18
2022-08-26T02:22:22.156Z,18.14
2022-08-26T02:24:57.857Z,18.07
2022-08-26T02:27:32.029Z,18.19
2022-08-26T02:30:10.587Z,18.18
2022-08-26T02:32:41.357Z,18.08
2022-08-26T02:35:12.645Z,18.15
2022-08-26T02:37:41.842Z,18.17
2022-08-26T02:40:16.573Z,18.16
2022-08-26T02:42:45.278Z,18.13
2022-08-26T02:45:14.257Z,18.07
2022-08-26T02:47:46.153Z,18.07
2022-08-26T02:50:15.564Z,18.07
2022-08-26T02:52:45.468Z,18.15
2022-08-26T02:55:16.625Z,18.17
2022-08-26T02:57:45.382Z,18.13
2022-08-26T03:00:16.128Z,18.18
2022-08-26T03:02:45.202Z,18.25
2022-08-26T03:05:14.515Z,18.31
2022-08-26T03:07:45.229Z,18.35
2022-08-26T03:10:16.522Z,18.25
2022-08-26T03:12:47.383Z,18.28
2022-08-26T03:15:19.596Z,18.16
2022-08-26T03:17:50.243Z,18.23
2022-08-26T03:20:20.137Z,18.30
2022-08-26T03:22:51.563Z,18.26
2022-08-26T03:25:22.643Z,18.13
2022-08-26T03:27:52.539Z,18.16
2022-08-26T03:30:44.633Z,18.13
2022-08-26T03:33:15.382Z,18.22
2022-08-26T03:35:47.848Z,18.21
2022-08-26T03:38:20.545Z,18.25
2022-08-26T03:40:51.169Z,18.21
2022-08-26T03:43:22.481Z,18.24
2022-08-26T03:45:51.612Z,18.21
2022-08-26T03:48:21.414Z,18.26
2022-08-26T03:50:50.512Z,18.28
2022-08-26T03:53:20.623Z,18.31
2022-08-26T03:55:51.979Z,18.30
2022-08-26T03:58:21.231Z,18.33
2022-08-26T04:00:55.601Z,18.33
2022-08-26T04:03:38.955Z,18.38
2022-08-26T04:06:08.575Z,18.34
2022-08-26T04:08:38.821Z,18.29
2022-08-26T04:11:10.601Z,18.32
2022-08-26T04:13:39.351Z,18.30
2022-08-26T04:16:08.834Z,18.35
2022-08-26T04:18:40.591Z,18.37
2022-08-26T04:21:15.912Z,18.35
2022-08-26T04:23:47.166Z,18.34
2022-08-26T04:26:18.203Z,18.34
2022-08-26T04:28:47.340Z,18.31
2022-08-26T04:31:18.363Z,18.36
2022-08-26T04:33:51.441Z,18.35
2022-08-26T04:36:20.440Z,18.35
2022-08-26T04:38:50.749Z,18.40
2022-08-26T04:41:22.104Z,18.41
2022-08-26T04:43:51.104Z,18.47
2022-08-26T04:46:24.505Z,18.47
2022-08-26T04:48:55.219Z,18.49
2022-08-26T04:51:28.059Z,18.49
2022-08-26T04:53:57.701Z,18.50
2022-08-26T04:56:30.622Z,18.56
2022-08-26T04:58:59.489Z,18.59
2022-08-26T05:01:29.203Z,18.57
2022-08-26T05:03:58.254Z,18.56
2022-08-26T05:06:28.142Z,18.68
2022-08-26T05:08:56.951Z,18.67
2022-08-26T05:11:29.624Z,18.70
2022-08-26T05:14:02.139Z,18.63
2022-08-26T05:16:31.371Z,18.73
2022-08-26T05:19:00.330Z,18.77
2022-08-26T05:21:30.230Z,18.72
2022-08-26T05:23:59.056Z,18.72
2022-08-26T05:26:32.144Z,18.86
2022-08-26T05:29:00.852Z,18.90
2022-08-26T05:31:32.673Z,18.96
2022-08-26T05:34:03.736Z,19.00
2022-08-26T05:36:38.397Z,19.04
2022-08-26T05:39:10.382Z,19.07
2022-08-26T05:41:44.725Z,19.22
2022-08-26T05:44:18.842Z,19.16
2022-08-26T05:46:47.803Z,19.35
2022-08-26T05:49:17.077Z,19.36
2022-08-26T05:51:48.022Z,19.38
2022-08-26T05:54:21.986Z,19.49
2022-08-26T05:56:53.222Z,19.57
2022-08-26T05:59:24.593Z,19.70
2022-08-26T06:01:54.837Z,19.80
2022-08-26T06:04:28.112Z,19.92
2022-08-26T06:06:58.158Z,20.05
2022-08-26T06:09:27.475Z,19.99
2022-08-26T06:11:59.020Z,20.08
2022-08-26T06:14:27.964Z,20.19
2022-08-26T06:16:57.634Z,20.24
2022-08-26T06:19:32.765Z,20.25
2022-08-26T06:22:23.867Z,20.39
2022-08-26T06:25:10.020Z,20.45
2022-08-26T06:27:41.082Z,20.43
2022-08-26T06:30:11.534Z,20.59
2022-08-26T06:32:41.286Z,20.68
2022-08-26T06:35:11.956Z,20.65
2022-08-26T06:37:42.866Z,20.67
2022-08-26T06:40:12.859Z,20.75
2022-08-26T06:42:43.017Z,20.74
2022-08-26T06:45:12.732Z,20.79
2022-08-26T06:47:42.010Z,20.85
2022-08-26T06:50:11.541Z,20.93
2022-08-26T06:52:43.368Z,20.90
2022-08-26T06:55:12.052Z,20.89
2022-08-26T06:57:42.165Z,21.04
2022-08-26T07:00:12.859Z,21.10
2022-08-26T07:02:46.824Z,21.04
2022-08-26T07:05:16.422Z,21.03
2022-08-26T07:07:45.104Z,21.16
2022-08-26T07:10:14.971Z,21.20
2022-08-26T07:12:47.071Z,21.20
2022-08-26T07:15:17.108Z,21.34
2022-08-26T07:17:46.070Z,21.50
2022-08-26T07:20:15.263Z,21.70
2022-08-26T07:22:44.302Z,21.68
2022-08-26T07:25:13.265Z,21.66
2022-08-26T07:27:42.118Z,21.61
2022-08-26T07:30:14.786Z,21.68
2022-08-26T07:32:43.817Z,21.79
2022-08-26T07:35:12.525Z,21.70
2022-08-26T07:37:41.270Z,21.63
2022-08-26T07:40:15.287Z,21.73
2022-08-26T07:42:54.994Z,21.57
2022-08-26T07:45:28.697Z,21.63
2022-08-26T07:47:59.291Z,21.71
2022-08-26T07:50:50.206Z,21.83
2022-08-26T07:53:18.029Z,21.92
2022-08-26T07:55:48.530Z,21.92
2022-08-26T07:58:18.236Z,21.86
2022-08-26T08:00:49.065Z,21.66
2022-08-26T08:03:20.651Z,21.76
2022-08-26T08:05:49.516Z,21.83
2022-08-26T08:08:27.652Z,21.89
2022-08-26T08:10:58.594Z,21.99
2022-08-26T08:13:39.935Z,22.06
2022-08-26T08:16:12.765Z,22.06
2022-08-26T08:18:41.751Z,22.05
2022-08-26T08:21:21.097Z,22.08
2022-08-26T08:23:53.244Z,21.98
2022-08-26T08:26:25.383Z,21.98
2022-08-26T08:28:58.384Z,22.08
2022-08-26T08:34:24.709Z,22.01
2022-08-26T08:36:54.662Z,22.08
2022-08-26T08:39:24.374Z,22.14
2022-08-26T08:42:28.345Z,22.10
2022-08-26T08:45:04.455Z,22.22
2022-08-26T08:47:40.030Z,22.24
2022-08-26T08:50:27.455Z,22.17
2022-08-26T08:53:12.109Z,22.10
2022-08-26T08:55:54.541Z,22.06
2022-08-26T08:58:33.089Z,22.13
2022-08-26T09:01:07.149Z,22.11
2022-08-26T09:03:56.543Z,22.04
2022-08-26T09:06:27.766Z,22.07
2022-08-26T09:08:58.514Z,22.17
2022-08-26T09:11:31.633Z,22.17
2022-08-26T09:14:00.971Z,22.19
2022-08-26T09:16:41.524Z,22.22
2022-08-26T09:19:23.362Z,22.26
2022-08-26T09:21:57.823Z,22.31
2022-08-26T09:24:28.517Z,22.29
2022-08-26T09:26:59.421Z,22.38
2022-08-26T09:29:31.899Z,22.45
2022-08-26T09:32:22.177Z,22.45
2022-08-26T09:34:59.761Z,22.45
2022-08-26T09:40:29.455Z,22.49
2022-08-26T09:43:22.656Z,22.50
2022-08-26T09:45:59.501Z,22.47
2022-08-26T09:48:35.450Z,22.49
2022-08-26T09:51:28.079Z,22.38
2022-08-26T09:54:00.495Z,22.32
2022-08-26T09:56:33.273Z,22.36
2022-08-26T09:59:04.066Z,22.40
2022-08-26T10:01:38.339Z,22.38
2022-08-26T10:04:11.257Z,22.38
2022-08-26T10:06:55.309Z,22.38
2022-08-26T10:09:26.753Z,22.31
2022-08-26T10:12:01.609Z,22.31
2022-08-26T10:14:39.420Z,22.28
2022-08-26T10:17:16.226Z,22.21
2022-08-26T10:19:57.148Z,22.24
2022-08-26T10:22:36.673Z,22.22
2022-08-26T10:25:14.854Z,22.12
2022-08-26T10:27:53.449Z,22.13
2022-08-26T10:30:28.824Z,22.13
2022-08-26T10:33:04.617Z,22.00
2022-08-26T10:35:37.305Z,21.96
2022-08-26T10:38:14.484Z,21.97
2022-08-26T10:40:56.301Z,21.94
2022-08-26T10:43:29.768Z,21.93
2022-08-26T10:46:05.027Z,21.92
2022-08-26T10:48:44.944Z,21.88
2022-08-26T10:51:16.545Z,21.89
2022-08-26T10:53:58.396Z,21.86
2022-08-26T10:56:43.543Z,21.76
2022-08-26T10:59:25.093Z,21.75
2022-08-26T11:02:09.582Z,21.75
2022-08-26T11:04:52.187Z,21.79
2022-08-26T11:07:42.993Z,21.86
2022-08-26T11:10:57.910Z,21.66
2022-08-26T11:14:03.201Z,21.60
2022-08-26T11:16:43.436Z,21.59
2022-08-26T11:20:01.045Z,21.54
2022-08-26T11:22:34.939Z,21.54
2022-08-26T11:25:16.094Z,21.50
2022-08-26T11:27:59.786Z,21.60
2022-08-26T11:30:56.987Z,21.66
2022-08-26T11:34:01.032Z,21.66
2022-08-26T11:36:57.041Z,21.65
2022-08-26T11:39:38.385Z,21.62
2022-08-26T11:42:28.552Z,21.61
2022-08-26T11:44:59.860Z,21.67
2022-08-26T11:47:33.298Z,21.71
2022-08-26T11:50:15.802Z,21.75
2022-08-26T11:52:54.498Z,21.63
2022-08-26T11:55:24.710Z,21.59
2022-08-26T11:58:00.883Z,21.63
2022-08-26T12:00:34.623Z,21.69
2022-08-26T12:03:09.540Z,21.69
2022-08-26T12:05:46.325Z,21.76
2022-08-26T12:08:21.547Z,21.79
2022-08-26T12:10:50.775Z,21.87
2022-08-26T12:13:27.245Z,21.96
2022-08-26T12:15:59.242Z,22.10
2022-08-26T12:18:31.869Z,22.20
2022-08-26T12:21:12.316Z,22.26
2022-08-26T12:23:47.754Z,22.39
2022-08-26T12:26:28.272Z,22.54
2022-08-26T12:29:01.589Z,22.35
2022-08-26T12:31:46.708Z,22.81
2022-08-26T12:34:18.591Z,22.90
2022-08-26T12:36:50.450Z,22.84
2022-08-26T12:39:29.245Z,22.92
2022-08-26T12:41:59.982Z,23.07
2022-08-26T12:44:54.110Z,23.03
2022-08-26T12:47:39.030Z,22.94
2022-08-26T12:50:20.157Z,23.20
2022-08-26T12:53:01.607Z,23.11
2022-08-26T12:55:41.535Z,22.93
2022-08-26T12:58:27.349Z,22.80
2022-08-26T13:01:26.503Z,22.73
2022-08-26T13:03:59.140Z,22.75
2022-08-26T13:06:31.584Z,22.69
2022-08-26T13:09:06.322Z,22.72
2022-08-26T13:11:59.177Z,23.06
2022-08-26T13:14:29.342Z,23.38
2022-08-26T13:16:59.459Z,23.59
2022-08-26T13:19:29.655Z,23.57
2022-08-26T13:22:01.258Z,23.58
2022-08-26T13:24:35.774Z,23.45
2022-08-26T13:27:08.113Z,23.20
2022-08-26T13:29:37.635Z,23.28
2022-08-26T13:32:09.911Z,23.43
2022-08-26T13:34:39.645Z,23.49
2022-08-26T13:37:08.616Z,23.73
2022-08-26T13:39:38.175Z,23.80
2022-08-26T13:42:07.030Z,23.93
2022-08-26T13:44:36.051Z,24.16
2022-08-26T13:47:06.282Z,23.90
2022-08-26T13:49:34.981Z,24.09
2022-08-26T13:52:04.197Z,24.12
2022-08-26T13:54:33.409Z,24.22
2022-08-26T13:57:02.268Z,24.16
2022-08-26T13:59:30.886Z,23.88
2022-08-26T14:02:00.723Z,23.81
2022-08-26T14:04:30.881Z,23.73
2022-08-26T14:06:59.573Z,23.73
2022-08-26T14:09:28.235Z,23.69
2022-08-26T14:11:58.116Z,23.59
2022-08-26T14:14:27.982Z,23.51
2022-08-26T14:16:59.375Z,23.51
2022-08-26T14:19:32.585Z,23.40
2022-08-26T14:22:02.484Z,23.22
2022-08-26T14:24:31.333Z,23.17
2022-08-26T14:27:00.097Z,23.12
2022-08-26T14:29:28.818Z,23.23
2022-08-26T14:32:00.212Z,23.01
2022-08-26T14:34:30.378Z,23.03
2022-08-26T14:36:59.097Z,23.28
2022-08-26T14:39:37.225Z,23.46
2022-08-26T14:42:06.487Z,23.66
2022-08-26T14:44:35.588Z,23.90
2022-08-26T14:47:07.330Z,24.20
2022-08-26T14:49:37.872Z,24.39
2022-08-26T14:52:06.698Z,24.29
2022-08-26T14:54:34.442Z,24.46
2022-08-26T14:57:07.298Z,24.51
2022-08-26T14:59:38.890Z,24.49
2022-08-26T15:02:10.694Z,24.61
2022-08-26T15:04:44.091Z,24.58
2022-08-26T15:07:13.258Z,24.68
2022-08-26T15:09:42.029Z,24.61
2022-08-26T15:12:10.912Z,24.64
2022-08-26T15:14:39.653Z,24.86
2022-08-26T15:17:09.848Z,24.87
2022-08-26T15:19:38.800Z,24.82
2022-08-26T15:22:08.786Z,24.71
2022-08-26T15:24:37.901Z,24.69
2022-08-26T15:27:06.790Z,24.60
2022-08-26T15:29:36.321Z,24.62
2022-08-26T15:32:06.332Z,24.51
2022-08-26T15:34:35.016Z,24.41
2022-08-26T15:37:03.674Z,24.20
2022-08-26T15:39:35.585Z,24.06
2022-08-26T15:42:05.059Z,24.06
2022-08-26T15:44:34.199Z,23.99
2022-08-26T15:47:03.085Z,24.32
2022-08-26T15:49:33.051Z,24.15
2022-08-26T15:52:03.464Z,24.21
2022-08-26T15:54:35.658Z,24.28
2022-08-26T15:57:07.175Z,24.30
2022-08-26T15:59:38.484Z,24.38
2022-08-26T16:02:07.498Z,24.52
2022-08-26T16:04:36.301Z,24.50
2022-08-26T16:07:05.851Z,24.46
2022-08-26T16:09:36.415Z,24.29
2022-08-26T16:12:06.099Z,24.20
2022-08-26T16:14:35.319Z,24.08
2022-08-26T16:17:04.665Z,23.96
2022-08-26T16:19:33.606Z,23.82
2022-08-26T16:22:02.707Z,23.77
2022-08-26T16:24:31.861Z,23.64
2022-08-26T16:27:02.479Z,23.61
2022-08-26T16:29:33.003Z,23.60
2022-08-26T16:32:08.768Z,23.45
2022-08-26T16:34:37.881Z,23.36
2022-08-26T16:37:16.311Z,23.35
2022-08-26T16:39:45.362Z,23.24
2022-08-26T16:42:15.968Z,23.10
2022-08-26T16:44:47.534Z,23.01
2022-08-26T16:47:18.523Z,22.76
2022-08-26T16:49:47.833Z,22.64
2022-08-26T16:52:17.268Z,22.22
2022-08-26T16:54:46.518Z,21.85
2022-08-26T16:57:17.283Z,21.50
2022-08-26T16:59:46.551Z,21.29
2022-08-26T17:02:15.877Z,21.12
2022-08-26T17:04:47.137Z,20.94
2022-08-26T17:07:19.146Z,20.85
2022-08-26T17:09:48.151Z,20.60
2022-08-26T17:12:19.118Z,20.56
2022-08-26T17:14:48.330Z,20.48
2022-08-26T17:17:17.636Z,20.28
2022-08-26T17:19:47.465Z,20.14
2022-08-26T17:22:17.869Z,20.12
2022-08-26T17:24:47.528Z,20.04
2022-08-26T17:27:18.366Z,19.89
2022-08-26T17:29:47.801Z,19.70
2022-08-26T17:32:17.349Z,19.58
2022-08-26T17:34:46.718Z,19.60
2022-08-26T17:37:18.099Z,19.50
2022-08-26T17:39:47.460Z,19.39
2022-08-26T17:42:18.564Z,19.32
2022-08-26T17:44:51.400Z,19.17
2022-08-26T17:47:20.811Z,19.12
2022-08-26T17:49:50.272Z,19.14
2022-08-26T17:52:21.282Z,18.91
2022-08-26T17:54:53.645Z,18.97
2022-08-26T17:57:24.722Z,18.84
2022-08-26T17:59:54.404Z,18.77
2022-08-26T18:02:34.098Z,18.75
2022-08-26T18:05:03.487Z,18.75
2022-08-26T18:07:33.800Z,18.69
2022-08-26T18:10:16.846Z,18.53
2022-08-26T18:12:48.724Z,18.53
2022-08-26T18:15:21.380Z,18.46
2022-08-26T18:17:53.394Z,18.40
2022-08-26T18:20:23.110Z,18.34
2022-08-26T18:22:52.551Z,18.28
2022-08-26T18:25:22.103Z,18.26
2022-08-26T18:27:52.701Z,18.21
2022-08-26T18:30:23.907Z,18.16
2022-08-26T18:32:53.936Z,18.14
2022-08-26T18:35:23.365Z,18.05
2022-08-26T18:37:52.796Z,17.99
2022-08-26T18:40:22.551Z,17.98
2022-08-26T18:42:54.172Z,17.89
2022-08-26T18:45:24.555Z,17.83
2022-08-26T18:47:54.101Z,17.82
2022-08-26T18:50:23.732Z,17.80
2022-08-26T18:52:53.150Z,17.82
2022-08-26T18:55:23.167Z,17.80
2022-08-26T18:57:56.792Z,17.75
2022-08-26T19:00:26.685Z,17.76
2022-08-26T19:02:56.346Z,17.72
2022-08-26T19:05:26.169Z,17.65
2022-08-26T19:07:56.811Z,17.67
2022-08-26T19:10:26.389Z,17.63
2022-08-26T19:13:02.387Z,17.58
2022-08-26T19:15:32.114Z,17.56
2022-08-26T19:18:03.631Z,17.51
2022-08-26T19:20:33.129Z,17.51
2022-08-26T19:23:10.618Z,17.51
2022-08-26T19:25:54.730Z,17.45
2022-08-26T19:28:25.738Z,17.49
2022-08-26T19:30:57.169Z,17.43
2022-08-26T19:33:27.291Z,17.38
2022-08-26T19:35:56.920Z,17.42
2022-08-26T19:38:27.829Z,17.38
2022-08-26T19:40:58.807Z,17.32
2022-08-26T19:43:29.788Z,17.37
2022-08-26T19:46:11.015Z,17.32
2022-08-26T19:48:40.787Z,17.29
2022-08-26T19:51:10.355Z,17.25
2022-08-26T19:53:45.105Z,17.18
2022-08-26T19:56:15.321Z,17.19
2022-08-26T19:58:46.529Z,17.12
2022-08-26T20:01:17.023Z,17.11
2022-08-26T20:03:48.581Z,17.12
2022-08-26T20:06:20.331Z,17.10
2022-08-26T20:08:53.870Z,17.02
2022-08-26T20:11:26.861Z,17.00
2022-08-26T20:13:57.978Z,16.98
2022-08-26T20:16:27.484Z,16.94
2022-08-26T20:19:13.974Z,16.95
2022-08-26T20:21:44.395Z,16.80
2022-08-26T20:24:17.521Z,16.79
2022-08-26T20:26:47.451Z,16.76
2022-08-26T20:29:19.950Z,16.74
2022-08-26T20:31:54.796Z,16.67
2022-08-26T20:34:24.728Z,16.57
2022-08-26T20:36:56.887Z,16.57
2022-08-26T20:39:28.962Z,16.53
2022-08-26T20:41:59.122Z,16.52
2022-08-26T20:44:30.003Z,16.46
2022-08-26T20:47:00.358Z,16.51
2022-08-26T20:49:32.219Z,16.51
2022-08-26T20:52:06.707Z,16.57
2022-08-26T20:54:38.964Z,16.57
2022-08-26T20:57:07.872Z,16.55
2022-08-26T20:59:38.360Z,16.51
2022-08-26T21:02:07.226Z,16.53
2022-08-26T21:04:36.585Z,16.51
2022-08-26T21:07:05.867Z,16.54
2022-08-26T21:09:34.839Z,16.55
2022-08-26T21:12:04.194Z,16.54
2022-08-26T21:14:33.271Z,16.58
2022-08-26T21:17:04.004Z,16.59
2022-08-26T21:19:32.819Z,16.53
2022-08-26T21:22:01.743Z,16.60
2022-08-26T21:24:30.481Z,16.58
2022-08-26T21:26:59.329Z,16.56
2022-08-26T21:29:28.202Z,16.60
2022-08-26T21:31:57.582Z,16.69
2022-08-26T21:34:27.872Z,16.68
2022-08-26T21:36:56.929Z,16.65
2022-08-26T21:39:26.869Z,16.65
2022-08-26T21:41:55.638Z,16.71
2022-08-26T21:44:24.298Z,16.78
2022-08-26T21:46:53.782Z,16.85
2022-08-26T21:49:22.480Z,16.88
2022-08-26T21:51:55.431Z,16.91
2022-08-26T21:54:24.378Z,16.96
2022-08-26T21:56:53.336Z,16.91
2022-08-26T21:59:22.112Z,16.91
2022-08-26T22:01:51.312Z,16.77
2022-08-26T22:04:20.104Z,16.77
2022-08-26T22:06:52.004Z,16.76
2022-08-26T22:09:25.217Z,16.70
2022-08-26T22:11:56.929Z,16.78
2022-08-26T22:14:30.451Z,16.57
2022-08-26T22:17:02.590Z,16.51
2022-08-26T22:19:31.957Z,16.45
2022-08-26T22:22:03.725Z,16.50
2022-08-26T22:24:33.935Z,16.47
2022-08-26T22:27:02.737Z,16.50
2022-08-26T22:29:32.368Z,16.52
2022-08-26T22:32:02.268Z,16.53
2022-08-26T22:34:31.088Z,16.66
2022-08-26T22:36:59.843Z,16.66
2022-08-26T22:39:28.646Z,16.73
2022-08-26T22:41:58.923Z,16.91
2022-08-26T22:44:27.711Z,16.98
2022-08-26T22:46:57.004Z,17.04
2022-08-26T22:49:26.160Z,17.03
2022-08-26T22:51:54.967Z,17.18
2022-08-26T22:54:23.640Z,17.19
2022-08-26T22:56:52.364Z,17.10
2022-08-26T22:59:22.687Z,17.07
2022-08-26T23:01:51.787Z,17.02
2022-08-26T23:04:21.105Z,17.04
2022-08-26T23:06:49.893Z,17.13
2022-08-26T23:09:20.505Z,17.14
2022-08-26T23:11:50.914Z,17.24
2022-08-26T23:14:21.498Z,17.31
2022-08-26T23:16:50.765Z,17.28
2022-08-26T23:19:23.121Z,17.26
2022-08-26T23:21:52.174Z,17.23
2022-08-26T23:24:21.214Z,17.16
2022-08-26T23:26:50.094Z,17.07
2022-08-26T23:29:18.992Z,17.08
2022-08-26T23:31:49.248Z,17.07
2022-08-26T23:34:46.822Z,17.07
2022-08-26T23:37:16.933Z,16.98
2022-08-26T23:39:46.612Z,16.96
2022-08-26T23:42:15.517Z,17.00
2022-08-26T23:44:44.289Z,17.00
2022-08-26T23:47:15.243Z,16.98
2022-08-26T23:49:44.212Z,16.95
2022-08-26T23:52:30.794Z,16.95
2022-08-26T23:54:59.616Z,16.91
2022-08-26T23:57:28.351Z,16.88
2022-08-26T23:59:58.006Z,16.88
